Time;durP1;ratioP1;P1;durP2;ratioP2;P2;SDS_P1;SDS_P2;PMS_P1;PMS_P2;Temp;Humidity;BMP_temperature;BMP_pressure;BME280_temperature;BME280_humidity;BME280_pressure;Samples;Min_cycle;Max_cycle;Signal;HPM_P1;HPM_P2
2022/09/16 00:01:28;;;;;;;4.07;1.15;;;;;;;11.08;100.00;100770.91;4977803;28;20043;-80
2022/09/16 00:03:57;;;;;;;3.60;0.85;;;;;;;11.06;100.00;100763.00;4984414;28;20049;-79
2022/09/16 00:06:28;;;;;;;4.65;1.67;;;;;;;11.02;100.00;100773.53;4956724;28;20330;-80
2022/09/16 00:09:01;;;;;;;3.70;1.20;;;;;;;10.99;100.00;100781.47;4993250;28;20049;-80
2022/09/16 00:11:35;;;;;;;2.00;0.90;;;;;;;10.94;100.00;100768.25;4960420;28;20086;-80
2022/09/16 00:14:04;;;;;;;5.32;1.42;;;;;;;10.92;100.00;100788.47;4944339;28;20062;-80
2022/09/16 00:16:32;;;;;;;4.60;1.13;;;;;;;10.91;100.00;100784.97;4954415;28;20054;-79
2022/09/16 00:19:02;;;;;;;3.75;1.00;;;;;;;10.91;100.00;100787.59;4996175;28;20122;-80
2022/09/16 00:21:30;;;;;;;7.25;1.52;;;;;;;10.95;100.00;100792.88;4998701;28;20347;-81
2022/09/16 00:23:59;;;;;;;5.28;1.38;;;;;;;10.96;100.00;100803.41;4937494;28;20126;-79
2022/09/16 00:26:28;;;;;;;1.23;0.88;;;;;;;10.99;100.00;100806.06;4962006;28;20238;-80
2022/09/16 00:28:57;;;;;;;5.90;1.00;;;;;;;11.01;100.00;100801.66;4964751;28;20129;-79
2022/09/16 00:31:26;;;;;;;5.78;1.83;;;;;;;11.02;100.00;100800.81;4937132;28;20039;-79
2022/09/16 00:33:54;;;;;;;2.85;1.13;;;;;;;11.03;100.00;100785.84;4963123;28;20047;-80
2022/09/16 00:36:23;;;;;;;5.63;1.30;;;;;;;11.04;100.00;100790.22;4944203;28;20688;-79
2022/09/16 00:38:56;;;;;;;4.85;1.27;;;;;;;11.04;100.00;100777.94;4934362;28;20066;-79
2022/09/16 00:41:27;;;;;;;5.47;1.30;;;;;;;11.06;100.00;100786.72;4959854;28;20054;-80
2022/09/16 00:44:01;;;;;;;8.00;1.38;;;;;;;11.06;100.00;100778.81;4962774;28;20526;-80
2022/09/16 00:46:48;;;;;;;4.75;1.40;;;;;;;11.04;100.00;100777.03;4945758;28;20055;-80
2022/09/16 00:49:25;;;;;;;5.88;1.52;;;;;;;11.01;100.00;100774.44;4960171;28;20077;-80
2022/09/16 00:51:58;;;;;;;2.83;1.63;;;;;;;10.98;100.00;100777.06;4979431;28;20043;-80
2022/09/16 00:54:28;;;;;;;6.88;1.20;;;;;;;10.93;100.00;100777.94;4922218;28;20051;-80
2022/09/16 00:56:59;;;;;;;7.53;1.23;;;;;;;10.90;100.00;100772.66;4963730;28;20500;-80
2022/09/16 00:59:34;;;;;;;5.55;1.02;;;;;;;10.86;100.00;100773.53;4960105;28;20061;-80
2022/09/16 01:02:07;;;;;;;8.40;1.38;;;;;;;10.80;100.00;100768.25;4962569;28;20050;-80
2022/09/16 01:04:51;;;;;;;5.32;1.30;;;;;;;10.77;100.00;100770.00;4936924;28;20055;-80
2022/09/16 01:07:28;;;;;;;9.20;1.88;;;;;;;10.75;100.00;100775.28;4946284;28;20408;-80
2022/09/16 01:09:57;;;;;;;3.65;1.13;;;;;;;10.75;100.00;100771.75;4938469;28;20057;-80
2022/09/16 01:12:29;;;;;;;6.55;1.20;;;;;;;10.74;100.00;100768.25;4943416;28;20039;-80
2022/09/16 01:15:00;;;;;;;7.10;1.33;;;;;;;10.77;100.00;100777.91;4963318;28;20040;-80
2022/09/16 01:17:48;;;;;;;;;;;;;;;10.77;100.00;100796.38;4947481;28;20555;-80
2022/09/16 01:20:23;;;;;;;3.97;1.42;;;;;;;10.77;100.00;100794.59;4989374;28;19920;-80
2022/09/16 01:23:09;;;;;;;6.75;1.80;;;;;;;10.76;100.00;100794.63;5004929;28;20057;-80
2022/09/16 01:25:40;;;;;;;4.40;1.27;;;;;;;10.76;100.00;100798.13;4939289;28;20070;-81
2022/09/16 01:28:36;;;;;;;9.98;1.80;;;;;;;10.76;100.00;100802.53;4965038;28;20049;-79
2022/09/16 01:31:18;;;;;;;10.45;1.33;;;;;;;10.74;100.00;100789.34;4948771;28;20368;-80
2022/09/16 01:34:31;;;;;;;7.22;1.20;;;;;;;10.75;100.00;100777.91;4967126;28;20054;-80
2022/09/16 01:37:12;;;;;;;7.03;1.58;;;;;;;10.77;100.00;100773.50;4904546;28;20063;-80
2022/09/16 01:40:06;;;;;;;6.22;1.70;;;;;;;10.80;100.00;100784.06;4967635;28;20039;-79
2022/09/16 01:42:35;;;;;;;11.93;2.47;;;;;;;10.84;100.00;100783.19;5000942;28;20554;-79
2022/09/16 01:45:21;;;;;;;8.23;1.65;;;;;;;10.85;100.00;100779.69;4966941;28;20058;-80
2022/09/16 01:48:24;;;;;;;9.20;1.60;;;;;;;10.87;100.00;100769.16;4996276;28;20052;-80
2022/09/16 01:51:04;;;;;;;8.82;2.20;;;;;;;10.87;100.00;100767.38;4975650;28;20050;-80
2022/09/16 01:53:33;;;;;;;;;;;;;;;10.87;100.00;100764.75;4962280;28;20614;-79
2022/09/16 01:56:16;;;;;;;5.60;1.50;;;;;;;10.87;100.00;100770.03;4965563;28;19922;-79
2022/09/16 01:59:05;;;;;;;5.15;1.30;;;;;;;10.88;100.00;100763.84;4982030;28;20050;-79
2022/09/16 02:01:41;;;;;;;7.55;1.30;;;;;;;10.87;100.00;100772.66;4959205;28;20057;-80
2022/09/16 02:04:16;;;;;;;8.55;2.17;;;;;;;10.86;100.00;100784.06;4944533;28;20048;-79
2022/09/16 02:06:50;;;;;;;7.95;1.65;;;;;;;10.87;100.00;100791.13;4960000;28;20419;-80
2022/09/16 02:09:25;;;;;;;9.50;1.60;;;;;;;10.87;100.00;100771.78;4961899;28;20035;-80
2022/09/16 02:11:57;;;;;;;10.40;1.58;;;;;;;10.87;100.00;100775.31;4966053;28;20058;-81
2022/09/16 02:14:30;;;;;;;8.32;1.55;;;;;;;10.86;100.00;100776.16;4919350;28;20247;-79
2022/09/16 02:17:04;;;;;;;7.55;1.38;;;;;;;10.85;100.00;100771.78;4956008;28;20069;-79
2022/09/16 02:19:40;;;;;;;5.95;1.52;;;;;;;10.84;100.00;100772.66;4957821;28;20059;-79
2022/09/16 02:22:24;;;;;;;6.13;1.55;;;;;;;10.81;100.00;100771.75;5003711;28;20051;-79
2022/09/16 02:24:53;;;;;;;9.73;1.65;;;;;;;10.80;100.00;100777.94;4959660;28;20050;-80
2022/09/16 02:27:22;;;;;;;7.72;1.80;;;;;;;10.77;100.00;100770.00;4933993;28;20303;-79
2022/09/16 02:29:59;;;;;;;5.90;1.80;;;;;;;10.74;100.00;100770.91;4919971;28;20058;-79
2022/09/16 02:32:31;;;;;;;6.18;2.20;;;;;;;10.72;100.00;100781.44;4960698;28;20081;-79
2022/09/16 02:35:01;;;;;;;11.20;1.88;;;;;;;10.70;100.00;100777.03;4959743;28;20047;-80
2022/09/16 02:37:39;;;;;;;6.90;1.55;;;;;;;10.69;100.00;100777.91;4938620;28;20051;-79
2022/09/16 02:40:18;;;;;;;7.20;1.55;;;;;;;10.66;100.00;100767.34;4982509;28;20042;-80
2022/09/16 02:42:48;;;;;;;4.50;1.60;;;;;;;10.64;100.00;100769.09;4964742;28;20043;-79
2022/09/16 02:45:16;;;;;;;5.72;1.30;;;;;;;10.62;100.00;100765.59;4923552;28;20059;-79
2022/09/16 02:48:02;;;;;;;4.72;1.52;;;;;;;10.60;100.00;100762.94;5006258;28;20498;-79
2022/09/16 02:50:59;;;;;;;3.65;1.42;;;;;;;10.58;100.00;100758.56;4986477;28;20243;-79
2022/09/16 02:53:51;;;;;;;6.93;1.50;;;;;;;10.53;100.00;100769.09;4952714;28;20050;-79
2022/09/16 02:56:40;;;;;;;7.32;2.10;;;;;;;10.50;100.00;100764.69;5043666;28;20042;-79
2022/09/16 02:59:11;;;;;;;8.40;1.98;;;;;;;10.50;100.00;100772.59;4926642;28;20047;-80
2022/09/16 03:01:41;;;;;;;;;;;;;;;10.49;100.00;100770.84;4962717;28;20327;-79
2022/09/16 03:04:13;;;;;;;3.25;1.27;;;;;;;10.45;100.00;100769.09;5034582;28;19922;-79
2022/09/16 03:06:42;;;;;;;7.40;1.30;;;;;;;10.44;100.00;100771.72;4965241;28;20043;-79
2022/09/16 03:09:12;;;;;;;10.35;1.40;;;;;;;10.39;100.00;100765.53;4973045;28;20043;-79
2022/09/16 03:12:01;;;;;;;8.30;1.63;;;;;;;10.34;100.00;100768.19;4960126;28;20384;-79
2022/09/16 03:15:08;;;;;;;6.90;1.70;;;;;;;10.29;100.00;100760.22;4936949;28;20065;-78
2022/09/16 03:17:47;;;;;;;9.35;1.63;;;;;;;10.26;100.00;100754.06;4973148;28;20054;-79
2022/09/16 03:20:42;;;;;;;8.48;1.80;;;;;;;10.27;100.00;100763.72;4959552;28;20061;-79
2022/09/16 03:23:43;;;;;;;11.13;1.83;;;;;;;10.27;100.00;100772.50;4994067;28;20400;-80
2022/09/16 03:26:31;;;;;;;7.70;2.15;;;;;;;10.29;100.00;100776.03;4946987;28;20055;-79
2022/09/16 03:29:00;;;;;;;9.95;1.67;;;;;;;10.30;100.00;100777.81;4975283;28;20039;-79
2022/09/16 03:31:54;;;;;;;8.10;1.52;;;;;;;10.31;100.00;100774.31;4935153;28;20275;-79
2022/09/16 03:34:32;;;;;;;7.63;1.42;;;;;;;10.34;100.00;100769.06;4959304;28;20066;-79
2022/09/16 03:37:06;;;;;;;4.28;1.13;;;;;;;10.37;100.00;100768.16;4956104;28;20046;-80
2022/09/16 03:39:36;;;;;;;6.07;1.58;;;;;;;10.39;100.00;100769.06;4961215;28;20311;-79
2022/09/16 03:42:09;;;;;;;5.88;1.80;;;;;;;10.39;100.00;100762.91;4958496;28;20389;-79
2022/09/16 03:44:39;;;;;;;5.53;1.42;;;;;;;10.36;100.00;100763.78;4948089;28;20054;-79
2022/09/16 03:47:09;;;;;;;6.95;1.50;;;;;;;10.34;100.00;100753.25;4938413;28;20073;-80
2022/09/16 03:49:37;;;;;;;7.85;1.60;;;;;;;10.32;100.00;100746.19;4963242;28;20163;-79
2022/09/16 03:52:07;;;;;;;13.43;1.70;;;;;;;10.31;100.00;100757.63;5032038;28;20530;-80
2022/09/16 03:54:36;;;;;;;12.40;2.70;;;;;;;10.26;100.00;100759.31;5034209;28;20259;-80
2022/09/16 03:57:05;;;;;;;11.43;1.73;;;;;;;10.20;100.00;100751.41;4959107;28;20051;-80
2022/09/16 03:59:34;;;;;;;6.70;1.77;;;;;;;10.15;100.00;100754.91;4962205;28;20061;-78
2022/09/16 04:02:04;;;;;;;7.28;1.58;;;;;;;10.13;100.00;100754.03;4928496;28;20054;-79
2022/09/16 04:04:32;;;;;;;9.75;1.67;;;;;;;10.11;100.00;100757.50;4971712;28;20047;-79
2022/09/16 04:07:01;;;;;;;10.15;1.73;;;;;;;10.08;100.00;100757.53;5010050;28;20043;-79
2022/09/16 04:09:29;;;;;;;5.82;1.58;;;;;;;10.03;100.00;100744.31;4960376;28;20357;-79
2022/09/16 04:11:57;;;;;;;8.48;1.58;;;;;;;10.01;100.00;100751.34;4963963;28;20509;-79
2022/09/16 04:14:26;;;;;;;13.00;2.53;;;;;;;10.01;100.00;100756.59;4996571;28;20265;-80
2022/09/16 04:16:54;;;;;;;9.13;1.83;;;;;;;9.99;100.00;100753.09;4949431;28;20058;-79
2022/09/16 04:19:23;;;;;;;16.23;3.05;;;;;;;9.97;100.00;100746.94;4933808;28;20043;-80
2022/09/16 04:21:52;;;;;;;11.30;2.58;;;;;;;9.97;100.00;100744.31;4959410;28;20039;-79
2022/09/16 04:24:20;;;;;;;10.52;2.38;;;;;;;9.95;100.00;100740.78;4963599;28;20451;-79
2022/09/16 04:26:49;;;;;;;7.38;1.85;;;;;;;9.93;100.00;100738.16;4950530;28;20061;-80
2022/09/16 04:29:18;;;;;;;13.43;2.08;;;;;;;9.92;100.00;100746.94;4922092;28;20148;-79
2022/09/16 04:31:46;;;;;;;11.63;1.77;;;;;;;9.88;100.00;100734.59;4956905;28;20055;-79
2022/09/16 04:34:15;;;;;;;15.43;2.08;;;;;;;9.85;100.00;100744.25;4936573;28;20063;-79
2022/09/16 04:36:43;;;;;;;9.45;2.17;;;;;;;9.84;100.00;100743.38;4964911;28;20043;-80
2022/09/16 04:39:13;;;;;;;10.45;2.13;;;;;;;9.84;100.00;100732.84;4955990;28;20062;-79
2022/09/16 04:41:41;;;;;;;8.70;2.50;;;;;;;9.84;100.00;100743.38;4949475;28;20039;-79
2022/09/16 04:44:10;;;;;;;10.95;1.85;;;;;;;9.84;100.00;100737.22;4952126;28;20046;-80
2022/09/16 04:46:39;;;;;;;8.80;2.05;;;;;;;9.84;100.00;100731.97;4950798;28;20042;-80
2022/09/16 04:49:07;;;;;;;10.38;2.47;;;;;;;9.84;100.00;100730.22;4918482;28;20039;-80
2022/09/16 04:51:36;;;;;;;11.45;1.48;;;;;;;9.82;100.00;100733.72;4954752;28;20059;-79
2022/09/16 04:54:05;;;;;;;7.75;1.67;;;;;;;9.80;100.00;100748.63;4930212;28;20055;-80
2022/09/16 04:56:34;;;;;;;9.43;2.70;;;;;;;9.79;100.00;100750.34;4943100;28;20054;-81
2022/09/16 04:59:04;;;;;;;9.43;2.42;;;;;;;9.79;100.00;100757.38;4937092;28;20047;-80
2022/09/16 05:01:36;;;;;;;11.98;1.73;;;;;;;9.78;100.00;100753.88;4965185;28;20516;-79
2022/09/16 05:04:06;;;;;;;6.93;1.77;;;;;;;9.81;100.00;100751.28;4937280;28;20055;-80
2022/09/16 05:06:37;;;;;;;13.13;1.90;;;;;;;9.83;100.00;100756.53;4943300;28;20039;-80
2022/09/16 05:09:10;;;;;;;10.68;1.48;;;;;;;9.89;100.00;100748.66;4958602;28;20043;-80
2022/09/16 05:11:39;;;;;;;6.43;1.77;;;;;;;9.89;100.00;100741.66;4964659;28;20054;-80
2022/09/16 05:14:15;;;;;;;5.45;1.52;;;;;;;9.87;100.00;100739.91;4948887;28;20403;-79
2022/09/16 05:16:44;;;;;;;8.50;1.63;;;;;;;9.88;100.00;100749.53;4995055;28;20055;-78
2022/09/16 05:19:13;;;;;;;12.43;1.65;;;;;;;9.90;100.00;100732.00;4931927;28;20057;-79
2022/09/16 05:21:42;;;;;;;17.52;2.10;;;;;;;9.91;100.00;100736.41;4958773;28;20035;-79
2022/09/16 05:24:12;;;;;;;12.13;1.58;;;;;;;9.91;100.00;100732.00;4951176;28;20776;-80
2022/09/16 05:26:42;;;;;;;6.25;1.73;;;;;;;9.92;100.00;100749.56;5001367;28;20044;-79
2022/09/16 05:29:14;;;;;;;12.65;1.85;;;;;;;9.93;100.00;100782.91;4965935;28;20159;-81
2022/09/16 05:31:46;;;;;;;9.07;1.70;;;;;;;9.97;100.00;100770.63;4963631;28;20400;-79
2022/09/16 05:34:23;;;;;;;10.90;1.98;;;;;;;10.02;100.00;100765.38;4960901;28;20270;-79
2022/09/16 05:36:52;;;;;;;7.93;2.05;;;;;;;10.09;100.00;100775.97;4991025;28;20458;-78
2022/09/16 05:39:27;;;;;;;12.05;2.20;;;;;;;10.18;100.00;100774.22;4942601;28;20043;-81
2022/09/16 05:41:58;;;;;;;14.27;2.00;;;;;;;10.26;100.00;100762.81;5045367;28;20046;-80
2022/09/16 05:44:28;;;;;;;9.05;1.88;;;;;;;10.31;100.00;100755.88;4953977;28;20055;-80
2022/09/16 05:46:56;;;;;;;6.60;1.70;;;;;;;10.35;100.00;100751.50;4962577;28;20058;-79
2022/09/16 05:49:25;;;;;;;14.48;2.03;;;;;;;10.36;100.00;100758.53;4950530;28;20057;-80
2022/09/16 05:51:53;;;;;;;9.07;1.88;;;;;;;10.37;100.00;100748.88;4978234;28;20035;-80
2022/09/16 05:54:23;;;;;;;11.15;1.98;;;;;;;10.38;100.00;100753.25;4953460;28;21551;-80
2022/09/16 05:56:53;;;;;;;7.68;1.63;;;;;;;10.40;100.00;100755.03;5013821;28;20054;-81
2022/09/16 05:59:22;;;;;;;10.05;1.80;;;;;;;10.47;100.00;100766.44;4953849;28;20043;-80
2022/09/16 06:01:51;;;;;;;11.45;2.22;;;;;;;10.51;100.00;100755.94;4972478;28;20035;-81
2022/09/16 06:04:20;;;;;;;10.27;2.50;;;;;;;10.56;100.00;100747.16;4948843;28;20051;-82
2022/09/16 06:06:48;;;;;;;12.27;2.45;;;;;;;10.61;100.00;100748.03;4940823;28;20078;-80
2022/09/16 06:09:20;;;;;;;10.98;2.40;;;;;;;10.63;100.00;100747.16;4993739;28;20047;-79
2022/09/16 06:11:51;;;;;;;8.50;1.88;;;;;;;10.68;100.00;100741.88;4961156;28;20038;-79
2022/09/16 06:14:25;;;;;;;13.27;2.05;;;;;;;10.73;100.00;100740.13;4924249;28;20047;-79
2022/09/16 06:16:54;;;;;;;15.85;1.95;;;;;;;10.78;100.00;100737.50;4943788;28;20034;-80
2022/09/16 06:19:23;;;;;;;16.00;2.40;;;;;;;10.82;100.00;100734.88;4942467;28;20050;-81
2022/09/16 06:21:51;;;;;;;11.20;1.88;;;;;;;10.86;100.00;100733.13;4927026;28;20049;-80
2022/09/16 06:24:21;;;;;;;11.90;2.20;;;;;;;10.88;100.00;100732.22;4984098;28;20509;-81
2022/09/16 06:26:50;;;;;;;10.10;2.08;;;;;;;10.90;100.00;100730.47;4985896;28;20054;-80
2022/09/16 06:29:21;;;;;;;13.88;2.83;;;;;;;10.93;100.00;100741.03;4962352;28;20050;-80
2022/09/16 06:31:50;;;;;;;12.55;1.80;;;;;;;10.93;100.00;100725.19;4953517;28;20035;-80
2022/09/16 06:34:19;;;;;;;14.88;2.63;;;;;;;10.92;100.00;100730.47;4962609;28;20055;-79
2022/09/16 06:36:48;;;;;;;16.27;2.30;;;;;;;10.93;100.00;100734.88;4942244;28;20051;-80
2022/09/16 06:39:16;;;;;;;10.45;2.00;;;;;;;10.94;100.00;100731.34;4967450;28;20059;-80
2022/09/16 06:41:46;;;;;;;17.25;2.92;;;;;;;10.96;100.00;100734.00;4978132;28;20302;-80
2022/09/16 06:44:15;;;;;;;13.85;2.42;;;;;;;10.99;100.00;100726.09;4943747;28;20039;-82
2022/09/16 06:46:49;;;;;;;11.93;1.85;;;;;;;11.04;100.00;100727.84;4966085;28;20415;-80
2022/09/16 06:49:18;;;;;;;14.68;2.13;;;;;;;11.14;100.00;100733.13;4943041;28;20043;-80
2022/09/16 06:51:47;;;;;;;16.25;2.15;;;;;;;11.20;100.00;100726.06;4958332;28;20260;-79
2022/09/16 06:54:16;;;;;;;8.18;1.63;;;;;;;11.30;100.00;100734.84;4923955;28;20035;-79
2022/09/16 06:56:45;;;;;;;15.10;3.13;;;;;;;11.50;100.00;100721.59;4961639;28;20047;-80
2022/09/16 06:59:14;;;;;;;10.63;2.40;;;;;;;11.73;100.00;100723.31;4943548;28;20500;-80
2022/09/16 07:01:42;;;;;;;7.70;1.73;;;;;;;11.92;100.00;100719.72;4960133;28;20073;-80
2022/09/16 07:04:14;;;;;;;10.20;1.52;;;;;;;12.07;100.00;100718.78;4964284;28;20043;-80
2022/09/16 07:06:49;;;;;;;11.10;2.15;;;;;;;12.29;100.00;100719.56;4992957;28;20330;-80
2022/09/16 07:09:36;;;;;;;4.55;1.58;;;;;;;12.49;100.00;100714.13;4933877;28;20046;-79
2022/09/16 07:12:07;;;;;;;10.93;1.58;;;;;;;12.66;100.00;100716.66;4938993;28;20056;-80
2022/09/16 07:14:36;;;;;;;9.52;1.48;;;;;;;12.88;100.00;100723.53;4948732;28;20077;-79
2022/09/16 07:17:04;;;;;;;8.55;1.70;;;;;;;13.14;100.00;100729.50;4937099;28;20043;-80
2022/09/16 07:19:33;;;;;;;8.38;1.88;;;;;;;13.32;100.00;100752.28;4955694;28;20081;-80
2022/09/16 07:22:02;;;;;;;7.07;1.73;;;;;;;13.35;100.00;100747.84;4947305;28;20042;-79
2022/09/16 07:24:30;;;;;;;6.95;2.10;;;;;;;13.27;100.00;100732.00;4902112;28;20490;-79
2022/09/16 07:27:00;;;;;;;11.93;2.25;;;;;;;13.17;100.00;100738.25;4948141;28;20055;-79
2022/09/16 07:29:28;;;;;;;7.15;1.63;;;;;;;13.07;100.00;100741.88;4960131;28;20043;-79
2022/09/16 07:31:56;;;;;;;10.38;1.95;;;;;;;13.00;100.00;100733.13;4929082;28;20046;-80
2022/09/16 07:34:25;;;;;;;6.20;1.55;;;;;;;12.97;100.00;100740.22;4964149;28;20245;-80
2022/09/16 07:36:55;;;;;;;12.10;2.22;;;;;;;13.02;100.00;100730.47;4949627;28;20055;-81
2022/09/16 07:39:24;;;;;;;8.75;1.90;;;;;;;13.43;100.00;100734.53;4939285;28;20327;-80
2022/09/16 07:41:53;;;;;;;11.05;2.33;;;;;;;13.88;100.00;100726.09;4931977;28;20373;-80
2022/09/16 07:44:21;;;;;;;13.55;2.30;;;;;;;14.13;100.00;100722.22;4951217;28;20542;-79
2022/09/16 07:46:51;;;;;;;8.50;2.20;;;;;;;14.47;100.00;100732.34;4964347;28;20500;-79
2022/09/16 07:49:19;;;;;;;14.80;2.67;;;;;;;14.81;100.00;100732.72;4941540;28;20042;-79
2022/09/16 07:51:47;;;;;;;9.60;2.25;;;;;;;15.16;100.00;100722.41;4976866;28;20035;-79
2022/09/16 07:54:18;;;;;;;9.90;2.33;;;;;;;15.56;100.00;100725.22;4948347;28;20256;-80
2022/09/16 07:56:48;;;;;;;11.32;2.38;;;;;;;15.95;100.00;100735.09;4947334;28;20046;-80
2022/09/16 07:59:18;;;;;;;8.88;2.00;;;;;;;16.36;100.00;100733.31;4949688;28;20062;-80
2022/09/16 08:01:48;;;;;;;9.32;2.78;;;;;;;16.70;100.00;100729.88;4935589;28;20038;-80
2022/09/16 08:04:18;;;;;;;6.93;1.95;;;;;;;17.01;100.00;100735.34;4990299;28;20265;-80
2022/09/16 08:06:48;;;;;;;15.25;2.47;;;;;;;17.30;100.00;100728.41;4976081;28;20043;-80
2022/09/16 08:09:16;;;;;;;7.32;2.50;;;;;;;17.46;100.00;100736.84;4959903;28;20050;-80
2022/09/16 08:12:09;;;;;;;8.45;1.63;;;;;;;17.44;100.00;100736.03;4940936;28;20051;-80
2022/09/16 08:14:38;;;;;;;11.90;2.05;;;;;;;17.44;100.00;100739.56;4961859;28;20035;-80
2022/09/16 08:17:10;;;;;;;6.28;1.50;;;;;;;17.56;100.00;100732.16;4953046;28;20070;-81
2022/09/16 08:19:40;;;;;;;6.03;1.65;;;;;;;17.71;97.79;100735.28;4962640;28;20036;-81
2022/09/16 08:22:09;;;;;;;5.65;1.52;;;;;;;17.78;95.00;100727.97;4965182;28;20039;-81
2022/09/16 08:24:37;;;;;;;11.57;2.05;;;;;;;17.79;90.99;100723.50;5022395;28;20050;-80
2022/09/16 08:27:06;;;;;;;7.18;1.65;;;;;;;17.72;89.17;100729.00;4931841;28;20047;-80
2022/09/16 08:29:35;;;;;;;6.90;1.55;;;;;;;17.68;89.83;100726.50;4973738;28;20391;-82
2022/09/16 08:32:04;;;;;;;6.43;1.80;;;;;;;17.69;85.76;100736.22;4959393;28;20039;-80
2022/09/16 08:34:37;;;;;;;6.03;1.45;;;;;;;17.66;83.13;100739.00;4969665;28;20504;-80
2022/09/16 08:37:05;;;;;;;5.43;1.60;;;;;;;17.54;82.95;100738.41;4965616;28;20038;-80
2022/09/16 08:39:34;;;;;;;8.63;1.90;;;;;;;17.62;84.37;100726.66;4963976;28;20062;-80
2022/09/16 08:42:42;;;;;;;9.90;1.70;;;;;;;17.66;79.11;100729.19;4962323;28;20046;-81
2022/09/16 08:45:22;;;;;;;10.98;1.83;;;;;;;17.73;78.04;100732.53;4959471;28;20651;-80
2022/09/16 08:48:12;;;;;;;7.73;1.93;;;;;;;17.67;78.13;100722.06;4974270;28;20062;-81
2022/09/16 08:50:45;;;;;;;5.90;1.88;;;;;;;17.56;81.59;100737.47;4965871;28;20038;-81
2022/09/16 08:53:24;;;;;;;10.38;1.83;;;;;;;17.31;82.34;100746.13;4961253;28;20038;-80
2022/09/16 08:55:53;;;;;;;9.55;2.17;;;;;;;16.91;83.48;100755.13;4952555;28;20391;-79
2022/09/16 08:58:29;;;;;;;9.48;2.17;;;;;;;16.63;85.07;100750.44;4963127;28;20047;-80
2022/09/16 09:01:14;;;;;;;12.48;2.25;;;;;;;16.47;86.27;100746.41;4947423;28;20058;-81
2022/09/16 09:03:45;;;;;;;16.05;3.10;;;;;;;16.17;90.91;100762.09;4965540;28;20954;-80
2022/09/16 09:06:41;;;;;;;10.15;2.92;;;;;;;15.72;93.36;100760.31;4960544;28;20049;-80
2022/09/16 09:09:34;;;;;;;8.23;1.90;;;;;;;15.22;96.12;100762.13;4983206;28;20039;-80
2022/09/16 09:12:22;;;;;;;12.18;2.50;;;;;;;14.85;98.61;100760.06;4967096;28;20492;-80
2022/09/16 09:15:12;;;;;;;8.43;1.92;;;;;;;14.53;99.15;100763.19;4946546;28;20121;-79
2022/09/16 09:17:53;;;;;;;7.78;2.13;;;;;;;14.28;99.22;100760.88;4961153;28;20046;-79
2022/09/16 09:20:46;;;;;;;7.82;1.80;;;;;;;14.27;100.00;100753.81;4944221;28;20278;-80
2022/09/16 09:23:43;;;;;;;13.63;2.33;;;;;;;14.34;100.00;100751.97;4960451;28;20035;-80
2022/09/16 09:26:26;;;;;;;8.38;1.92;;;;;;;14.39;100.00;100755.44;4960425;28;20089;-80
2022/09/16 09:29:34;;;;;;;10.68;1.63;;;;;;;14.35;100.00;100745.78;4965935;28;20039;-80
2022/09/16 09:32:21;;;;;;;11.00;2.08;;;;;;;14.38;100.00;100748.38;4933730;28;20047;-81
2022/09/16 09:35:20;;;;;;;8.25;1.95;;;;;;;14.50;100.00;100748.22;4953721;28;20368;-80
2022/09/16 09:37:56;;;;;;;10.77;2.15;;;;;;;14.67;100.00;100771.88;4954256;28;20051;-80
2022/09/16 09:40:38;;;;;;;6.55;2.05;;;;;;;14.67;100.00;100773.63;4957748;28;20051;-80
2022/09/16 09:43:40;;;;;;;3.45;0.93;;;;;;;14.43;99.50;100781.00;4956778;28;20059;-80
2022/09/16 09:46:28;;;;;;;6.03;1.70;;;;;;;14.05;100.00;100779.72;4949777;28;20176;-80
2022/09/16 09:49:22;;;;;;;3.72;1.10;;;;;;;13.72;99.82;100770.41;4957942;28;20059;-82
2022/09/16 09:52:06;;;;;;;21.63;3.95;;;;;;;13.40;98.65;100768.94;4982025;28;20046;-79
2022/09/16 09:54:37;;;;;;;46.15;8.65;;;;;;;13.18;99.88;100766.47;4982436;28;20050;-79
2022/09/16 09:57:45;;;;;;;10.55;2.28;;;;;;;13.07;100.00;100763.06;4967486;28;20047;-80
2022/09/16 10:00:17;;;;;;;6.07;1.40;;;;;;;13.04;100.00;100768.34;4948602;28;20842;-79
2022/09/16 10:02:46;;;;;;;6.75;1.50;;;;;;;13.10;100.00;100764.78;4941168;28;20051;-80
2022/09/16 10:05:23;;;;;;;7.63;1.73;;;;;;;13.29;100.00;100754.91;4966805;28;20659;-79
2022/09/16 10:07:56;;;;;;;8.73;1.80;;;;;;;13.54;100.00;100759.13;4976805;28;20042;-80
2022/09/16 10:10:33;;;;;;;6.35;1.80;;;;;;;13.82;100.00;100753.53;4978174;28;20058;-80
2022/09/16 10:13:15;;;;;;;15.05;2.55;;;;;;;14.08;100.00;100739.06;4987991;28;20050;-80
2022/09/16 10:15:46;;;;;;;8.40;1.77;;;;;;;14.27;100.00;100742.34;4928711;28;20043;-81
2022/09/16 10:18:27;;;;;;;5.07;1.75;;;;;;;14.48;100.00;100735.84;4999258;28;20054;-81
2022/09/16 10:21:00;;;;;;;6.78;1.60;;;;;;;14.57;100.00;100749.00;4959467;28;20268;-79
2022/09/16 10:23:33;;;;;;;3.15;0.90;;;;;;;14.36;99.75;100771.38;5026756;28;20051;-80
2022/09/16 10:26:19;;;;;;;4.57;1.27;;;;;;;14.11;100.00;100758.44;4966204;28;20066;-81
2022/09/16 10:28:56;;;;;;;6.78;1.63;;;;;;;13.90;100.00;100762.25;4952632;28;23486;-80
2022/09/16 10:31:29;;;;;;;3.00;1.20;;;;;;;13.72;100.00;100757.16;4919290;28;20057;-81
2022/09/16 10:34:04;;;;;;;7.38;1.30;;;;;;;13.63;100.00;100750.22;4957570;28;20171;-80
2022/09/16 10:36:34;;;;;;;5.40;1.75;;;;;;;13.71;100.00;100758.06;4948953;28;20496;-80
2022/09/16 10:39:03;;;;;;;7.75;1.63;;;;;;;13.93;100.00;100741.03;4952131;28;20062;-81
2022/09/16 10:41:43;;;;;;;5.35;1.38;;;;;;;14.21;100.00;100740.66;4965247;28;20039;-80
2022/09/16 10:44:32;;;;;;;9.90;1.60;;;;;;;14.55;100.00;100745.47;4953732;28;20050;-80
2022/09/16 10:47:14;;;;;;;5.70;1.27;;;;;;;14.70;100.00;100752.38;4957371;28;20042;-81
2022/09/16 10:49:47;;;;;;;4.93;1.45;;;;;;;14.75;100.00;100739.91;4927400;28;20051;-79
2022/09/16 10:52:20;;;;;;;6.95;1.83;;;;;;;14.93;100.00;100741.38;4969134;28;20049;-79
2022/09/16 10:54:49;;;;;;;7.40;2.15;;;;;;;15.12;100.00;100726.91;4967285;28;20047;-81
2022/09/16 10:57:29;;;;;;;;;;;;;;;15.34;99.77;100732.69;4946965;28;20408;-80
2022/09/16 11:00:10;;;;;;;9.82;2.00;;;;;;;15.49;99.87;100725.38;4965417;28;19933;-80
2022/09/16 11:03:03;;;;;;;12.52;2.40;;;;;;;15.47;93.94;100743.97;4935208;28;20055;-80
2022/09/16 11:05:44;;;;;;;9.23;1.88;;;;;;;15.39;94.98;100729.97;4961437;28;20267;-79
2022/09/16 11:08:35;;;;;;;11.85;2.53;;;;;;;15.40;94.63;100729.06;4974049;28;20038;-81
2022/09/16 11:11:32;;;;;;;9.82;2.13;;;;;;;15.52;93.84;100726.19;4964682;28;20043;-79
2022/09/16 11:14:17;;;;;;;13.20;3.08;;;;;;;15.64;93.73;100714.44;4958748;28;20425;-80
2022/09/16 11:17:09;;;;;;;9.30;2.08;;;;;;;15.72;93.84;100727.56;4953203;28;20051;-80
2022/09/16 11:20:23;;;;;;;7.20;1.70;;;;;;;15.81;87.60;100719.44;4942594;28;20042;-82
2022/09/16 11:23:25;;;;;;;8.30;1.70;;;;;;;15.82;86.73;100717.66;4903893;28;20048;-79
2022/09/16 11:26:09;;;;;;;11.48;2.70;;;;;;;15.86;89.01;100714.91;4911917;28;20041;-80
2022/09/16 11:28:49;;;;;;;15.75;2.42;;;;;;;15.97;89.24;100717.34;4970505;28;20050;-80
2022/09/16 11:31:41;;;;;;;13.15;3.10;;;;;;;16.11;88.08;100703.75;4961225;28;20514;-79
2022/09/16 11:34:30;;;;;;;10.52;2.45;;;;;;;16.22;85.70;100706.16;4940132;28;20046;-80
2022/09/16 11:37:34;;;;;;;9.38;2.30;;;;;;;16.23;85.64;100714.09;4984008;28;20046;-81
2022/09/16 11:40:08;;;;;;;17.60;3.13;;;;;;;16.12;84.60;100724.09;4962449;28;20441;-80
2022/09/16 11:43:03;;;;;;;13.10;2.70;;;;;;;16.02;86.06;100714.59;4964372;28;20412;-81
2022/09/16 11:45:58;;;;;;;12.40;2.42;;;;;;;16.02;87.25;100715.47;4970335;28;20035;-80
2022/09/16 11:48:51;;;;;;;18.95;3.05;;;;;;;15.96;86.69;100716.47;4945198;28;20050;-81
2022/09/16 11:51:50;;;;;;;16.20;2.70;;;;;;;15.94;85.17;100718.28;4952197;28;20510;-80
2022/09/16 11:54:34;;;;;;;14.73;2.50;;;;;;;15.88;85.96;100715.75;4952973;28;20496;-79
2022/09/16 11:57:09;;;;;;;11.32;2.83;;;;;;;15.90;85.57;100710.41;4941159;28;20406;-81